Tiempo atmosférico en la estación meteorológica de Santa Susana, Barcelona (45 m.)



Fecha
DESCASC
Temp. máxima en grados centígrados (hora)
DESCASC
Temp. mínima en grados centígrados (hora)
DESCASC
Temp. media en grados centígrados
DESCASC
Racha de viento máxima en m/sg (hora)
DESCASC
Velocidad máxima media en intervalos de 10 minutos(hora)
DESCASC
Precipitaciones diarias en mm
DESCASC
Precipitaciones de 00:00 a 06:00 en mm
DESCASC
Precipitaciones de 06:00 a 12:00 en mm
DESCASC
Precipitaciones de 12:00 a 18:00 en mm
DESCASC
Precipitaciones de 18:00 a 24:00 en mm
DESCASC

Gráficas

Temp. máximas Temp. mínimas Temp. medias Precipitaciones Rachas de viento máximas Velocidades máximas media en intervalos de 10 minutos

Datos horarios

Fecha y hora oficial Temperatura (ºC) Velocidad del viento (km/h) Dirección del viento Racha (km/h) Dirección de racha Precipitación (mm) Presión (hPa) Tendencia (hPa) Humedad (%)
2019-08-17 23:00:00 24.6 6 Sudoeste 14 Sur 0 -- -- 85
2019-08-17 22:00:00 24.7 4 Sur 19 Sudoeste 0 -- -- 84
2019-08-17 21:00:00 24.9 5 Sur 24 Sur 0 -- -- 83
2019-08-17 20:00:00 25.7 12 Sudoeste 33 Sudoeste 0 -- -- 79
2019-08-17 19:00:00 26.2 13 Sudoeste 36 Sudoeste 0 -- -- 75
2019-08-17 18:00:00 27.5 15 Sudoeste 39 Sur 0 -- -- 72
2019-08-17 17:00:00 28 15 Sudoeste 40 Sur 0 -- -- 69
2019-08-17 16:00:00 27.8 15 Sudoeste 34 Sudoeste 0 -- -- 70
2019-08-17 15:00:00 27.9 14 Sudoeste 38 Sudoeste 0 -- -- 69
2019-08-17 14:00:00 28.6 18 Sudoeste 38 Sur 0 -- -- 70
2019-08-17 13:00:00 27.6 21 Sudoeste 36 Sudoeste 0 -- -- 69
2019-08-17 12:00:00 27.9 19 Sudoeste 35 Sudoeste 0 -- -- 63
2019-08-17 11:00:00 27.2 17 Sur 31 Sudoeste 0 -- -- 65
2019-08-17 10:00:00 25.8 7 Sur 19 Sudoeste 0 -- -- 68
2019-08-17 09:00:00 20.4 0 Calma 5 Este 0 -- -- 88
2019-08-17 08:00:00 18.1 0 Calma 5 Nordeste 0 -- -- 90
2019-08-17 07:00:00 17.4 0 Calma 4 Nordeste 0 -- -- 90
2019-08-17 06:00:00 17.5 0 Calma 4 Nordeste 0 -- -- 90
2019-08-17 05:00:00 17.8 0 Calma 6 Nordeste 0 -- -- 90
2019-08-17 04:00:00 18.3 0 Calma 5 Nordeste 0 -- -- 90
2019-08-17 03:00:00 19.2 0 Calma 5 Nordeste 0 -- -- 90
2019-08-17 02:00:00 20.1 0 Calma 4 Oeste 0 -- -- 90
2019-08-17 01:00:00 21 0 Calma 5 Nordeste 0 -- -- 90
2019-08-17 00:00:00 21.8 0 Calma 8 Oeste 0 -- -- 90
2019-08-16 23:00:00 23.2 0 Calma 5 Nordeste 0 -- -- 87
2019-08-16 22:00:00 24.4 3 Sudoeste 21 Sudoeste 0 -- -- 85
2019-08-16 21:00:00 25.2 9 Sudoeste 22 Sudoeste 0 -- -- 81
2019-08-16 20:00:00 26.2 9 Sudoeste 35 Sur 0 -- -- 75
2019-08-16 19:00:00 26.9 11 Sudoeste 35 Sudoeste 0 -- -- 70
2019-08-16 18:00:00 26.4 17 Sudoeste 34 Sudoeste 0 -- -- 76
2019-08-16 17:00:00 26.2 18 Sur 41 Sur 0 -- -- 70
2019-08-16 16:00:00 26.4 20 Sur 42 Sudoeste 0 -- -- 65
2019-08-16 15:00:00 26.3 26 Sudoeste 90 Sur 0 -- -- 64
2019-08-16 14:00:00 24.9 14 Sudoeste 37 Sur 0 -- -- 68
2019-08-16 13:00:00 25 17 Sudoeste 31 Sudoeste 0 -- -- 64
2019-08-16 12:00:00 24.9 9 Sudoeste 21 Sudoeste 0 -- -- 64
2019-08-16 11:00:00 24.3 5 Sudoeste 18 Sur 0 -- -- 68
2019-08-16 10:00:00 24.8 4 Sudoeste 12 Sudoeste 0 -- -- 63
2019-08-16 09:00:00 23.3 3 Noroeste 9 Noroeste 0 -- -- 72
2019-08-16 08:00:00 21.9 0 Calma 11 Oeste 0 -- -- 83
2019-08-16 07:00:00 22.1 3 Noroeste 6 Noroeste 0 -- -- 80
2019-08-16 06:00:00 21.9 5 Norte 8 Nordeste 0 -- -- 80
2019-08-16 05:00:00 21.2 0 Calma 5 Noroeste 0 -- -- 83
2019-08-16 04:00:00 22.2 0 Calma 6 Nordeste 0 -- -- 78
2019-08-16 03:00:00 22.4 4 Norte 8 Nordeste 0 -- -- 79
2019-08-16 02:00:00 22 0 Calma 6 Noroeste 0 -- -- 78
2019-08-16 01:00:00 22.9 3 Norte 8 Oeste 0 -- -- 74
2019-08-16 00:00:00 23.1 3 Noroeste 14 Norte 0 -- -- 75
2019-08-15 23:00:00 23.2 4 Noroeste 9 Nordeste 0 -- -- 73
2019-08-15 22:00:00 23.2 3 Noroeste 9 Oeste 0 -- -- 73
2019-08-15 21:00:00 23.5 3 Norte 8 Nordeste 0 -- -- 70
2019-08-15 20:00:00 22.9 3 Sudoeste 10 Oeste 0 -- -- 73
2019-08-15 19:00:00 24 0 Calma 15 Sudoeste 0 -- -- 69
2019-08-15 18:00:00 24.2 3 Sur 16 Nordeste 0 -- -- 69
2019-08-15 17:00:00 24.4 6 Sudoeste 21 Sur 0 -- -- 69
2019-08-15 16:00:00 24.9 6 Nordeste 24 Norte 0 -- -- 65
2019-08-15 15:00:00 26.4 4 Nordeste 22 Sudoeste 0 -- -- 66
2019-08-15 14:00:00 28.2 2 Sudoeste 24 Sudoeste 0 -- -- 68
2019-08-15 13:00:00 26.6 10 Sudoeste 25 Sudoeste 0 -- -- 74
2019-08-15 12:00:00 27.7 2 Sudoeste 17 Sudoeste 0 -- -- 65
2019-08-15 11:00:00 25.2 0 Calma 13 Sudoeste 0 -- -- 66
2019-08-15 10:00:00 23.8 3 Oeste 13 Nordeste 0 -- -- 60
2019-08-15 09:00:00 23 6 Nordeste 13 Nordeste 0 -- -- 66
2019-08-15 08:00:00 18.6 4 Nordeste 7 Nordeste 0 -- -- 87
2019-08-15 07:00:00 17.8 4 Nordeste 8 Oeste 0 -- -- 90
2019-08-15 06:00:00 17.5 0 Calma 5 Oeste 0 -- -- 91
2019-08-15 05:00:00 17.5 0 Calma 4 Nordeste 0 -- -- 90
2019-08-15 04:00:00 17.4 0 Calma 4 Nordeste 0 -- -- 90
2019-08-15 03:00:00 17.6 0 Calma 4 Nordeste 0 -- -- 89
2019-08-15 02:00:00 18.2 0 Calma 4 Noroeste 0 -- -- 88
2019-08-15 01:00:00 18.3 0 Calma 4 Noroeste 0 -- -- 88
2019-08-15 00:00:00 18.9 0 Calma 3 Noroeste 0 -- -- 87
2019-08-14 23:00:00 19.6 0 Calma 5 Noroeste 0 -- -- 84
2019-08-14 22:00:00 20.8 0 Calma 7 Sudoeste 0 -- -- 80
2019-08-14 21:00:00 22.2 0 Calma 14 Sudoeste 0 -- -- 74
2019-08-14 20:00:00 23.9 9 Sudoeste 19 Sudoeste 0 -- -- 70
2019-08-14 19:00:00 24.2 12 Sudoeste 24 Sur 0 -- -- 65
2019-08-14 18:00:00 24.9 15 Sudoeste 28 Sudoeste 0 -- -- 60
2019-08-14 17:00:00 26.5 12 Sudoeste 28 Sudoeste 0 -- -- 54
2019-08-14 16:00:00 24.4 11 Sudoeste 24 Sudoeste 0 -- -- 55
2019-08-14 15:00:00 25.2 12 Sudoeste 28 Sudoeste 0 -- -- 53
2019-08-14 14:00:00 24.9 11 Sudoeste 28 Sudoeste 0 -- -- 53
2019-08-14 13:00:00 24.8 10 Sudoeste 25 Sudoeste 0 -- -- 51
2019-08-14 12:00:00 24.3 11 Sudoeste 21 Sudoeste 0 -- -- 51
2019-08-14 11:00:00 24.3 5 Sudoeste 16 Sudoeste 0 -- -- 50
2019-08-14 10:00:00 23 3 Oeste 13 Oeste 0 -- -- 48
2019-08-14 09:00:00 21.5 6 Noroeste 15 Noroeste 0 -- -- 49
2019-08-14 08:00:00 20.3 4 Noroeste 10 Noroeste 0 -- -- 53
2019-08-14 07:00:00 18.5 0 Calma 8 Oeste 0 -- -- 59
2019-08-14 06:00:00 19.2 3 Oeste 10 Nordeste 0 -- -- 54
2019-08-14 05:00:00 20.1 4 Noroeste 12 Oeste 0 -- -- 53
2019-08-14 04:00:00 19.7 0 Calma 8 Oeste 0 -- -- 60
2019-08-14 03:00:00 20.4 4 Noroeste 9 Noroeste 0 -- -- 58
2019-08-14 02:00:00 20.1 0 Calma 5 Nordeste 0 -- -- 80
2019-08-14 01:00:00 20.7 0 Calma 5 Oeste 0 -- -- 79
2019-08-14 00:00:00 20.2 0 Calma 5 Noroeste 0 -- -- 83
2019-08-13 23:00:00 19.7 0 Calma 6 Oeste 0 -- -- 83
2019-08-13 22:00:00 20.1 0 Calma 5 Este 0 -- -- 80
2019-08-13 21:00:00 21.2 2 Sudoeste 14 Sudoeste 0 -- -- 74
2019-08-13 20:00:00 23 10 Sudoeste 23 Sudoeste 0 -- -- 68
2019-08-13 19:00:00 23.4 9 Sudoeste 23 Sudoeste 0 -- -- 63
2019-08-13 18:00:00 24 12 Sudoeste 22 Sudoeste 0 -- -- 63
2019-08-13 17:00:00 23.9 10 Sudoeste 28 Sudoeste 0 -- -- 59
2019-08-13 16:00:00 25.3 12 Sudoeste 32 Sudoeste 0 -- -- 54
2019-08-13 15:00:00 26.4 14 Sudoeste 28 Sudoeste 0 -- -- 49
2019-08-13 14:00:00 24.6 14 Sudoeste 37 Sudoeste 0 -- -- 50
2019-08-13 13:00:00 26.2 13 Sudoeste 24 Sur 0 -- -- 48
2019-08-13 12:00:00 24.1 9 Sudoeste 20 Sudoeste 0 -- -- 48
2019-08-13 11:00:00 22.6 4 Oeste 17 Noroeste 0 -- -- 49
2019-08-13 10:00:00 20.5 6 Noroeste 17 Oeste 0 -- -- 55
2019-08-13 09:00:00 19.4 5 Noroeste 13 Oeste 0 -- -- 58
2019-08-13 08:00:00 19.1 4 Norte 11 Noroeste 0 -- -- 57
2019-08-13 07:00:00 18.8 5 Norte 9 Noroeste 0 -- -- 56
2019-08-13 06:00:00 19.4 4 Noroeste 13 Noroeste 0 -- -- 54
2019-08-13 05:00:00 19.2 2 Noroeste 12 Noroeste 0 -- -- 54
2019-08-13 04:00:00 20 6 Noroeste 15 Noroeste 0 -- -- 50
2019-08-13 03:00:00 20.5 6 Noroeste 15 Noroeste 0 -- -- 49
2019-08-13 02:00:00 20.8 6 Norte 14 Norte 0 -- -- 48
2019-08-13 01:00:00 20.7 4 Norte 14 Nordeste 0 -- -- 48
2019-08-13 00:00:00 21.1 6 Noroeste 15 Norte 0 -- -- 46
2019-08-12 23:00:00 22.2 6 Norte 22 Norte 0 -- -- 43
2019-08-12 22:00:00 23 10 Nordeste 20 Nordeste 0 -- -- 41
2019-08-12 21:00:00 24.1 6 Norte 17 Norte 0 -- -- 45
2019-08-12 20:00:00 25.6 0 Calma 10 Sudoeste 0 -- -- 51
2019-08-12 19:00:00 26.1 4 Sudoeste 17 Sudoeste 0 -- -- 50
2019-08-12 18:00:00 25.5 8 Sudoeste 19 Sudoeste 0 -- -- 51
2019-08-12 17:00:00 26.8 5 Sudoeste 23 Sudoeste 0 -- -- 50
2019-08-12 16:00:00 27.6 7 Sudoeste 21 Sudoeste 0 -- -- 49
2019-08-12 15:00:00 25.7 9 Sudoeste 19 Sudoeste 0 -- -- 58
2019-08-12 14:00:00 27.2 12 Sudoeste 21 Sudoeste 0 -- -- 51
2019-08-12 13:00:00 26.9 6 Nordeste 17 Nordeste 0 -- -- 46
2019-08-12 12:00:00 26.3 8 Nordeste 22 Nordeste 0 -- -- 50
2019-08-12 11:00:00 24 9 Norte 21 Nordeste 0 -- -- 61
2019-08-12 10:00:00 23.6 5 Noroeste 19 Nordeste 0 -- -- 62
2019-08-12 09:00:00 21.8 11 Nordeste 18 Este 0 -- -- 68
2019-08-12 08:00:00 20.8 12 Nordeste 30 Nordeste 0 -- -- 71
2019-08-12 07:00:00 20.4 9 Nordeste 23 Nordeste 0 -- -- 75
2019-08-12 06:00:00 18.7 7 Nordeste 14 Noroeste 0.9 -- -- 90
2019-08-12 05:00:00 21.7 7 Norte 24 Nordeste 0 -- -- 64
2019-08-12 04:00:00 23.3 7 Norte 16 Nordeste 0 -- -- 57
2019-08-12 03:00:00 23 8 Nordeste 19 Nordeste 0 -- -- 63
2019-08-12 02:00:00 23.1 4 Norte 12 Este 0 -- -- 68
2019-08-12 01:00:00 23.1 0 Calma 9 Norte 0 -- -- 70
2019-08-12 00:00:00 24.3 5 Norte 10 Noroeste 0 -- -- 68
2019-08-11 23:00:00 23 0 Calma 9 Norte 0 -- -- 79
2019-08-11 22:00:00 24 0 Calma 14 Nordeste 0 -- -- 74
2019-08-11 21:00:00 25.2 2 Este 14 Este 0 -- -- 69
2019-08-11 20:00:00 26.1 3 Este 14 Sudoeste 0 -- -- 74
2019-08-11 19:00:00 27 8 Sudoeste 20 Sudoeste 0 -- -- 71
2019-08-11 18:00:00 27.7 9 Sudoeste 24 Sudoeste 0 -- -- 63
2019-08-11 17:00:00 28.2 13 Sudoeste 24 Sudoeste 0 -- -- 56
2019-08-11 16:00:00 28.1 10 Sudoeste 27 Sudoeste 0 -- -- 53
2019-08-11 15:00:00 28.1 13 Sudoeste 28 Sudoeste 0 -- -- 54
2019-08-11 14:00:00 29.3 15 Sudoeste 31 Sudoeste 0 -- -- 53
2019-08-11 13:00:00 28.4 13 Sudoeste 25 Oeste 0 -- -- 53
2019-08-11 12:00:00 28.2 13 Sudoeste 23 Sudoeste 0 -- -- 48
2019-08-11 11:00:00 27.9 10 Sudoeste 21 Sudoeste 0 -- -- 48
2019-08-11 10:00:00 27.1 8 Sudoeste 15 Sudoeste 0 -- -- 55
2019-08-11 09:00:00 24.3 0 Calma 6 Este 0 -- -- 64
2019-08-11 08:00:00 20.8 2 Nordeste 5 Nordeste 0 -- -- 81
2019-08-11 07:00:00 19.6 2 Nordeste 5 Nordeste 0 -- -- 84
2019-08-11 06:00:00 20.1 2 Nordeste 4 Este 0 -- -- 83
2019-08-11 05:00:00 20.2 2 Nordeste 4 Este 0 -- -- 84
2019-08-11 04:00:00 20 0 Calma 4 Este 0 -- -- 88
2019-08-11 03:00:00 20.6 0 Calma 4 Este 0 -- -- 89
2019-08-11 02:00:00 21.2 0 Calma 3 Este 0 -- -- 89
2019-08-11 01:00:00 21.6 0 Calma 3 Oeste 0 -- -- 89
2019-08-11 00:00:00 21.9 0 Calma 3 Este 0 -- -- 86
2019-08-10 23:00:00 22.6 0 Calma 6 Oeste 0 -- -- 83
2019-08-10 22:00:00 23.5 0 Calma 5 Oeste 0 -- -- 79
2019-08-10 21:00:00 25.1 0 Calma 9 Sudoeste 0 -- -- 75
2019-08-10 20:00:00 26.7 3 Sudoeste 14 Nordeste 0 -- -- 63
2019-08-10 19:00:00 28.1 6 Este 14 Este 0 -- -- 56
2019-08-10 18:00:00 29.2 4 Sudoeste 23 Sudoeste 0 -- -- 50
2019-08-10 17:00:00 28.9 0 Calma 23 Sudoeste 0 -- -- 51
2019-08-10 16:00:00 29.9 3 Sudoeste 23 Sudoeste 0 -- -- 49
2019-08-10 15:00:00 30.1 9 Sudoeste 27 Sudoeste 0 -- -- 50
2019-08-10 14:00:00 29.7 9 Sudoeste 23 Sudoeste 0 -- -- 50
2019-08-10 13:00:00 29.5 10 Sudoeste 24 Sudoeste 0 -- -- 55
2019-08-10 12:00:00 29.5 9 Sudoeste 25 Sudoeste 0 -- -- 59
2019-08-10 11:00:00 30.9 7 Este 22 Nordeste 0 -- -- 44
2019-08-10 10:00:00 28.5 10 Nordeste 19 Nordeste 0 -- -- 50
2019-08-10 09:00:00 26.9 9 Nordeste 19 Nordeste 0 -- -- 68
2019-08-10 08:00:00 25.3 5 Norte 15 Nordeste 0 -- -- 80
2019-08-10 07:00:00 25 10 Nordeste 15 Nordeste 0 -- -- 82
2019-08-10 06:00:00 24 3 Nordeste 8 Noroeste 0 -- -- 88
2019-08-10 05:00:00 24.7 3 Norte 17 Norte 0 -- -- 86
2019-08-10 04:00:00 24.8 7 Noroeste 15 Noroeste 0 -- -- 85
2019-08-10 03:00:00 25 4 Norte 16 Norte 0 -- -- 85
2019-08-10 02:00:00 24.1 2 Norte 8 Este 0 -- -- 89
2019-08-10 01:00:00 23.3 0 Calma 6 Este 0 -- -- 90
2019-08-10 00:00:00 24 3 Sudoeste 16 Sudoeste 0 -- -- 89
2019-08-09 23:00:00 26.5 9 Sudoeste 26 Sur 0 -- -- 86
2019-08-09 22:00:00 26.8 9 Sudoeste 27 Sudoeste 0 -- -- 84
2019-08-09 21:00:00 27 10 Sudoeste 28 Sudoeste 0 -- -- 88
2019-08-09 20:00:00 27.6 13 Sudoeste 26 Sudoeste 0 -- -- 84
2019-08-09 19:00:00 28 15 Sudoeste 33 Sudoeste 0 -- -- 80
2019-08-09 18:00:00 29.1 15 Sudoeste 38 Sudoeste 0 -- -- 71
2019-08-09 17:00:00 28.6 13 Sudoeste 42 Sudoeste 0 -- -- 78
2019-08-09 16:00:00 28.6 19 Sudoeste 38 Sudoeste 0 -- -- 80
2019-08-09 15:00:00 29.2 22 Sudoeste 38 Sudoeste 0 -- -- 72
2019-08-09 14:00:00 29.6 21 Sudoeste 42 Sudoeste 0 -- -- 70
2019-08-09 13:00:00 28.7 19 Sudoeste 40 Sudoeste 0 -- -- 74
2019-08-09 12:00:00 28.6 18 Sudoeste 40 Sudoeste 0 -- -- 74
2019-08-09 11:00:00 27.5 14 Sudoeste 30 Sudoeste 0 -- -- 74
2019-08-09 10:00:00 27.7 11 Sudoeste 24 Sudoeste 0 -- -- 73
2019-08-09 09:00:00 26 8 Sudoeste 15 Sur 0 -- -- 73
2019-08-09 08:00:00 25.2 4 Noroeste 14 Noroeste 0 -- -- 87
2019-08-09 07:00:00 23.9 3 Oeste 10 Noroeste 0 -- -- 89
2019-08-09 06:00:00 21.8 2 Sudoeste 9 Oeste 0 -- -- 90
2019-08-09 05:00:00 24.2 4 Sudoeste 16 Sur 0 -- -- 85
2019-08-09 04:00:00 25.2 2 Sudoeste 18 Sudoeste 0 -- -- 89
2019-08-09 03:00:00 24.9 8 Sudoeste 21 Sudoeste 0 -- -- 89
2019-08-09 02:00:00 25.2 4 Sudoeste 18 Sudoeste 0 -- -- 90
2019-08-09 01:00:00 25.6 6 Sudoeste 15 Sudoeste 0 -- -- 89
2019-08-09 00:00:00 25.8 8 Sudoeste 20 Sudoeste 0 -- -- 89
2019-08-08 23:00:00 25.9 11 Sudoeste 24 Sur 0 -- -- 89
2019-08-08 22:00:00 26.1 6 Sudoeste 21 Sudoeste 0 -- -- 89
2019-08-08 21:00:00 26.3 3 Sudoeste 22 Sur 0 -- -- 86
2019-08-08 20:00:00 27.1 5 Sudoeste 27 Sudoeste 0 -- -- 80
2019-08-08 19:00:00 27.3 15 Sudoeste 34 Sudoeste 0 -- -- 75
2019-08-08 18:00:00 28.2 15 Sudoeste 36 Sudoeste 0 -- -- 73
2019-08-08 17:00:00 28.5 19 Sudoeste 40 Sudoeste 0 -- -- 73
2019-08-08 16:00:00 28.2 23 Sudoeste 38 Sudoeste 0 -- -- 74
2019-08-08 15:00:00 29.1 19 Sudoeste 39 Sur 0 -- -- 69
2019-08-08 14:00:00 28.6 19 Sudoeste 41 Sudoeste 0 -- -- 75
2019-08-08 13:00:00 28 18 Sudoeste 33 Sudoeste 0 -- -- 76
2019-08-08 12:00:00 27.9 17 Sudoeste 29 Sudoeste 0 -- -- 71
2019-08-08 11:00:00 28.4 8 Sudoeste 17 Sudoeste 0 -- -- 68
2019-08-08 10:00:00 26.9 5 Sudoeste 10 Sudoeste 0 -- -- 76
2019-08-08 09:00:00 23.1 3 Este 8 Este 0 -- -- 90
2019-08-08 08:00:00 21.4 0 Calma 6 Nordeste 0 -- -- 90
2019-08-08 07:00:00 20.8 0 Calma 4 Nordeste 0 -- -- 90
2019-08-08 06:00:00 21.3 0 Calma 4 Nordeste 0 -- -- 90
2019-08-08 05:00:00 21.8 0 Calma 5 Nordeste 0 -- -- 89
2019-08-08 04:00:00 22.1 0 Calma 7 Nordeste 0 -- -- 88
2019-08-08 03:00:00 22 0 Calma 9 Nordeste 0 -- -- 88
2019-08-08 02:00:00 21.8 0 Calma 5 Nordeste 0 -- -- 88
2019-08-08 01:00:00 21.6 0 Calma 5 Nordeste 0 -- -- 89
2019-08-08 00:00:00 22.8 3 Nordeste 6 Nordeste 0 -- -- 85
2019-08-07 23:00:00 23.1 0 Calma 5 Norte 0 -- -- 84
2019-08-07 22:00:00 24.3 0 Calma 11 Sudoeste 0 -- -- 80
2019-08-07 21:00:00 24.6 0 Calma 15 Sudoeste 0 -- -- 79
2019-08-07 20:00:00 25.8 8 Sudoeste 15 Sudoeste 0 -- -- 73
2019-08-07 19:00:00 26.8 6 Sudoeste 12 Sudoeste 0 -- -- 69
2019-08-07 18:00:00 26 6 Sudoeste 12 Sudoeste 0 -- -- 71
2019-08-07 17:00:00 26.1 8 Sudoeste 17 Sudoeste 0 -- -- 74
2019-08-07 16:00:00 25.4 8 Sudoeste 17 Sudoeste 0 -- -- 80
2019-08-07 15:00:00 26.2 8 Sudoeste 22 Sudoeste 0 -- -- 78
2019-08-07 14:00:00 27.1 8 Sudoeste 22 Sudoeste 0 -- -- 73
2019-08-07 13:00:00 26.9 5 Sudoeste 24 Sudoeste 0 -- -- 75
2019-08-07 12:00:00 27 13 Sudoeste 21 Sudoeste 0 -- -- 69
2019-08-07 11:00:00 27 4 Este 15 Este 0 -- -- 69
2019-08-07 10:00:00 25.9 5 Nordeste 15 Nordeste 0 -- -- 75
2019-08-07 09:00:00 24.8 5 Nordeste 12 Noroeste 0 -- -- 83
2019-08-07 08:00:00 22.1 0 Calma 5 Norte 0 -- -- 90
2019-08-07 07:00:00 21.6 3 Nordeste 5 Nordeste 0 -- -- 90
2019-08-07 06:00:00 21.7 3 Nordeste 5 Nordeste 0 -- -- 90
2019-08-07 05:00:00 21.7 0 Calma 5 Noroeste 0 -- -- 90
2019-08-07 04:00:00 22.3 0 Calma 4 Este 0 -- -- 90
2019-08-07 03:00:00 23 2 Nordeste 7 Nordeste 0 -- -- 89
2019-08-07 02:00:00 24.1 4 Nordeste 18 Nordeste 0 -- -- 88
2019-08-07 01:00:00 24.7 9 Nordeste 17 Nordeste 0 -- -- 86
2019-08-07 00:00:00 23.6 2 Norte 7 Noroeste 0 -- -- 90
2019-08-06 23:00:00 23.1 0 Calma 4 Sudoeste 0 -- -- 90
2019-08-06 22:00:00 24.1 0 Calma 6 Noroeste 0 -- -- 89
2019-08-06 21:00:00 25.5 0 Calma 12 Sudoeste 0 -- -- 87
2019-08-06 20:00:00 26.2 8 Sudoeste 19 Sudoeste 0 -- -- 85
2019-08-06 19:00:00 25.8 7 Sudoeste 22 Sudoeste 0 -- -- 86
2019-08-06 18:00:00 26.8 11 Sudoeste 24 Sudoeste 0 -- -- 83
2019-08-06 17:00:00 27.3 11 Sudoeste 25 Sudoeste 0 -- -- 79
2019-08-06 16:00:00 27.9 12 Sudoeste 28 Sudoeste 0 -- -- 75
2019-08-06 15:00:00 27.6 10 Sudoeste 23 Sudoeste 0 -- -- 73
2019-08-06 14:00:00 28.2 4 Norte 23 Sudoeste 0 -- -- 66
2019-08-06 13:00:00 28.3 5 Sudoeste 23 Sudoeste 0 -- -- 66
2019-08-06 12:00:00 28 5 Sudoeste 19 Sudoeste 0 -- -- 68
2019-08-06 11:00:00 27.3 4 Sudoeste 18 Nordeste 0 -- -- 60
2019-08-06 10:00:00 26.6 9 Nordeste 16 Nordeste 0 -- -- 55
2019-08-06 09:00:00 24.4 7 Noroeste 15 Noroeste 0 -- -- 53
2019-08-06 08:00:00 22 3 Noroeste 11 Noroeste 0 -- -- 74
2019-08-06 07:00:00 18.6 0 Calma 4 Nordeste 0 -- -- 90
2019-08-06 06:00:00 19 0 Calma 4 Nordeste 0 -- -- 90
2019-08-06 05:00:00 19.8 2 Nordeste 6 Nordeste 0 -- -- 90
2019-08-06 04:00:00 20.3 0 Calma 6 Noroeste 0 -- -- 90
2019-08-06 03:00:00 20.1 0 Calma 4 Este 0 -- -- 90
2019-08-06 02:00:00 19.7 0 Calma 5 Noroeste 0 -- -- 84
2019-08-06 01:00:00 19.7 0 Calma 3 Oeste 0 -- -- 78
2019-08-06 00:00:00 21 0 Calma 5 Oeste 0 -- -- 86
2019-08-05 23:00:00 22.3 0 Calma 4 Este 0 -- -- 88
2019-08-05 22:00:00 23.3 0 Calma 6 Sur 0 -- -- 85
2019-08-05 21:00:00 25.6 4 Sudoeste 18 Sudoeste 0 -- -- 81
2019-08-05 20:00:00 27.8 6 Sudoeste 19 Sudoeste 0 -- -- 53
2019-08-05 19:00:00 29 11 Sudoeste 22 Sudoeste 0 -- -- 41
2019-08-05 18:00:00 29 14 Sudoeste 29 Sudoeste 0 -- -- 52
2019-08-05 17:00:00 29.5 12 Sudoeste 28 Sudoeste 0 -- -- 61
2019-08-05 16:00:00 29 14 Sudoeste 27 Sudoeste 0 -- -- 53
2019-08-05 15:00:00 29.7 17 Sudoeste 29 Sudoeste 0 -- -- 52
2019-08-05 14:00:00 30.3 14 Sudoeste 24 Sudoeste 0 -- -- 45
2019-08-05 13:00:00 28 11 Sudoeste 23 Sur 0 -- -- 60
2019-08-05 12:00:00 29 8 Sudoeste 18 Sudoeste 0 -- -- 49
2019-08-05 11:00:00 28.1 6 Sudoeste 14 Sudoeste 0 -- -- 47
2019-08-05 10:00:00 27.2 3 Sudoeste 6 Sudoeste 0 -- -- 50
2019-08-05 09:00:00 21.8 0 Calma 2 Sudoeste 0 -- -- 73
2019-08-05 08:00:00 18.8 0 Calma 3 Nordeste 0 -- -- 88
2019-08-05 07:00:00 17.8 0 Calma 5 Noroeste 0 -- -- 88
2019-08-05 06:00:00 18.6 0 Calma 8 Noroeste 0 -- -- 90
2019-08-05 05:00:00 20.5 2 Nordeste 7 Este 0 -- -- 90
2019-08-05 04:00:00 21.7 0 Calma 17 Sudoeste 0 -- -- 90
2019-08-05 03:00:00 22.3 3 Sudoeste 11 Sudoeste 0 -- -- 90
2019-08-05 02:00:00 23.7 0 Calma 21 Sudoeste 0 -- -- 89
2019-08-05 01:00:00 24.2 9 Sudoeste 21 Sudoeste 0 -- -- 89
2019-08-05 00:00:00 24.1 0 Calma 15 Sudoeste 0 -- -- 89
2019-08-04 23:00:00 24.6 6 Sudoeste 19 Sudoeste 0 -- -- 88
2019-08-04 22:00:00 25.2 8 Sudoeste 18 Sudeste 0 -- -- 84
2019-08-04 21:00:00 25.9 8 Sudoeste 17 Sur 0 -- -- 73
2019-08-04 20:00:00 28.4 0 Calma 13 Sudoeste 0 -- -- 51
2019-08-04 19:00:00 28.1 2 Norte 26 Sur 0 -- -- 51
2019-08-04 18:00:00 29.3 10 Sudoeste 32 Sudoeste 0 -- -- 48
2019-08-04 17:00:00 29.6 13 Sudoeste 31 Sudoeste 0 -- -- 64
2019-08-04 16:00:00 29.2 13 Sudoeste 30 Sudoeste 0 -- -- 65
2019-08-04 15:00:00 28.3 15 Sudoeste 26 Sudoeste 0 -- -- 61
2019-08-04 14:00:00 28.3 14 Sudoeste 24 Sudoeste 0 -- -- 64
2019-08-04 13:00:00 29.1 6 Sudoeste 21 Sudoeste 0 -- -- 50
2019-08-04 12:00:00 28.2 12 Sudoeste 22 Sudoeste 0 -- -- 49
2019-08-04 11:00:00 28.1 12 Sudoeste 21 Sudoeste 0 -- -- 50
2019-08-04 10:00:00 27.5 0 Calma 7 Sudoeste 0 -- -- 55
2019-08-04 09:00:00 22.4 0 Calma 4 Noroeste 0 -- -- 74
2019-08-04 08:00:00 19.1 0 Calma 5 Noroeste 0 -- -- 81
2019-08-04 07:00:00 18.8 2 Nordeste 5 Este 0 -- -- 80
2019-08-04 06:00:00 19.2 0 Calma 10 Nordeste 0 -- -- 78
2019-08-04 05:00:00 19.8 0 Calma 9 Este 0 -- -- 75
2019-08-04 04:00:00 19.4 0 Calma 21 Sur 0 -- -- 78
2019-08-04 03:00:00 21.3 8 Sudoeste 18 Sur 0 -- -- 70
2019-08-04 02:00:00 19.8 0 Calma 7 Noroeste 0 -- -- 82
2019-08-04 01:00:00 21.5 0 Calma 6 Nordeste 0 -- -- 79
2019-08-04 00:00:00 23 3 Sudoeste 22 Sudoeste 0 -- -- 80
2019-08-03 23:00:00 24.6 8 Sudoeste 20 Sudoeste 0 -- -- 78
2019-08-03 22:00:00 25 10 Sudoeste 22 Sudoeste 0 -- -- 75
2019-08-03 21:00:00 25.4 5 Sudoeste 18 Sur 0 -- -- 71
2019-08-03 20:00:00 26.2 4 Sudoeste 25 Sur 0 -- -- 70
2019-08-03 19:00:00 27.1 10 Sudoeste 32 Sudoeste 0 -- -- 66
2019-08-03 18:00:00 27.1 17 Sudoeste 36 Sudoeste 0 -- -- 65
2019-08-03 17:00:00 27 19 Sudoeste 37 Sudoeste 0 -- -- 60
2019-08-03 16:00:00 28.2 18 Sudoeste 32 Sudoeste 0 -- -- 51
2019-08-03 15:00:00 28.4 12 Sudoeste 27 Sudoeste 0 -- -- 54
2019-08-03 14:00:00 28.4 12 Sudoeste 25 Sudoeste 0 -- -- 54
2019-08-03 13:00:00 27.4 9 Sudoeste 22 Sudoeste 0 -- -- 54
2019-08-03 12:00:00 28.2 8 Sudoeste 17 Sudoeste 0 -- -- 49
2019-08-03 11:00:00 27.7 6 Sudoeste 14 Sudoeste 0 -- -- 46
2019-08-03 10:00:00 27.6 4 Noroeste 9 Nordeste 0 -- -- 48
2019-08-03 09:00:00 24.1 6 Nordeste 14 Este 0 -- -- 56
2019-08-03 08:00:00 18.4 0 Calma 5 Nordeste 0 -- -- 80
2019-08-03 07:00:00 17.5 0 Calma 5 Este 0 -- -- 83
2019-08-03 06:00:00 17.9 2 Nordeste 6 Nordeste 0 -- -- 81
2019-08-03 05:00:00 18 0 Calma 5 Nordeste 0 -- -- 78
2019-08-03 04:00:00 18.2 3 Nordeste 4 Nordeste 0 -- -- 74
2019-08-03 03:00:00 18.5 0 Calma 5 Nordeste 0 -- -- 73
2019-08-03 02:00:00 18.8 0 Calma 6 Este 0 -- -- 71
2019-08-03 01:00:00 19.3 0 Calma 6 Noroeste 0 -- -- 75
2019-08-03 00:00:00 20.4 2 Nordeste 5 Nordeste 0 -- -- 74
2019-08-02 23:00:00 20.9 0 Calma 6 Oeste 0 -- -- 79
2019-08-02 22:00:00 22.4 0 Calma 6 Nordeste 0 -- -- 74
2019-08-02 21:00:00 24.2 0 Calma 20 Sudoeste 0 -- -- 66
2019-08-02 20:00:00 26.2 12 Sudoeste 23 Sudoeste 0 -- -- 58
2019-08-02 19:00:00 26.9 15 Sudoeste 32 Sudoeste 0 -- -- 56
2019-08-02 18:00:00 27.2 17 Sudoeste 37 Sudoeste 0 -- -- 54
2019-08-02 17:00:00 28.2 16 Sudoeste 35 Sur 0 -- -- 50
2019-08-02 16:00:00 28.1 18 Sudoeste 36 Sur 0 -- -- 51
2019-08-02 15:00:00 28.4 17 Sudoeste 27 Sudoeste 0 -- -- 45
2019-08-02 14:00:00 27.9 10 Sudoeste 27 Sudoeste 0 -- -- 43
2019-08-02 13:00:00 27.6 11 Sudoeste 24 Sudoeste 0 -- -- 42
2019-08-02 12:00:00 28.8 12 Sudoeste 25 Sudoeste 0 -- -- 40
2019-08-02 11:00:00 29.2 4 Este 14 Este 0 -- -- 41
2019-08-02 10:00:00 26.9 3 Este 12 Este 0 -- -- 49
2019-08-02 09:00:00 21.5 2 Nordeste 7 Noroeste 0 -- -- 65
2019-08-02 08:00:00 18.3 0 Calma 5 Noroeste 0 -- -- 77
2019-08-02 07:00:00 18 0 Calma 4 Nordeste 0 -- -- 76
2019-08-02 06:00:00 18.6 0 Calma 8 Noroeste 0 -- -- 73
2019-08-02 05:00:00 18.8 0 Calma 6 Noroeste 0 -- -- 70
2019-08-02 04:00:00 20.2 0 Calma 6 Nordeste 0 -- -- 64
2019-08-02 03:00:00 23.1 4 Norte 13 Nordeste 0 -- -- 51
2019-08-02 02:00:00 22.6 4 Norte 9 Nordeste 0 -- -- 54
2019-08-02 01:00:00 20 2 Nordeste 5 Nordeste 0 -- -- 61
2019-08-02 00:00:00 21 0 Calma 15 Nordeste 0 -- -- 51
2019-08-01 23:00:00 24.2 10 Nordeste 22 Nordeste 0 -- -- 45
2019-08-01 22:00:00 22.1 0 Calma 10 Nordeste 0 -- -- 58
2019-08-01 21:00:00 24.9 6 Nordeste 12 Nordeste 0 -- -- 50
2019-08-01 20:00:00 25.7 8 Nordeste 20 Nordeste 0 -- -- 46
2019-08-01 19:00:00 27.6 9 Nordeste 19 Nordeste 0 -- -- 37
2019-08-01 18:00:00 28.5 8 Nordeste 20 Nordeste 0 -- -- 35
2019-08-01 17:00:00 30.8 6 Nordeste 22 Nordeste 0 -- -- 32
2019-08-01 16:00:00 30.1 11 Nordeste 24 Nordeste 0 -- -- 31
2019-08-01 15:00:00 29.7 14 Nordeste 31 Nordeste 0 -- -- 32
2019-08-01 14:00:00 30 3 Sur 20 Sudoeste 0 -- -- 30
2019-08-01 13:00:00 30.3 9 Nordeste 21 Este 0 -- -- 31
2019-08-01 12:00:00 29 8 Nordeste 24 Nordeste 0 -- -- 34
2019-08-01 11:00:00 27.5 9 Nordeste 25 Nordeste 0 -- -- 37
2019-08-01 10:00:00 25.6 7 Norte 23 Nordeste 0 -- -- 44
2019-08-01 09:00:00 23.2 8 Nordeste 19 Nordeste 0 -- -- 50
2019-08-01 08:00:00 21.9 12 Nordeste 25 Nordeste 0 -- -- 60
2019-08-01 07:00:00 21.9 10 Nordeste 20 Nordeste 0 -- -- 65
2019-08-01 06:00:00 21.1 6 Norte 13 Norte 0 -- -- 73
2019-08-01 05:00:00 18.8 2 Nordeste 8 Noroeste 0 -- -- 85
2019-08-01 04:00:00 18.5 0 Calma 5 Noroeste 0 -- -- 86
2019-08-01 03:00:00 18.8 2 Nordeste 5 Nordeste 0 -- -- 86
2019-08-01 02:00:00 18.9 0 Calma 5 Este 0 -- -- 85
2019-08-01 01:00:00 20.1 3 Nordeste 8 Sudoeste 0 -- -- 80
2019-08-01 00:00:00 19.5 0 Calma 5 Este 0 -- -- 83
2019-07-31 23:00:00 19.7 0 Calma 5 Oeste 0 -- -- 81
2019-07-31 22:00:00 20.7 0 Calma 4 Sudoeste 0 -- -- 76
2019-07-31 21:00:00 22.5 2 Sudoeste 12 Sudoeste 0 -- -- 66
2019-07-31 20:00:00 23.8 7 Sudoeste 15 Sudoeste 0 -- -- 61
2019-07-31 19:00:00 24.1 8 Sudoeste 20 Sudoeste 0 -- -- 58
2019-07-31 18:00:00 24.8 10 Sudoeste 24 Sudoeste 0 -- -- 57
2019-07-31 17:00:00 25.2 13 Sudoeste 22 Sudoeste 0 -- -- 54
2019-07-31 16:00:00 24.9 7 Sudoeste 24 Sudoeste 0 -- -- 54
2019-07-31 15:00:00 24.6 12 Sudoeste 28 Sudoeste 0 -- -- 54
2019-07-31 14:00:00 25.2 8 Sudoeste 27 Sudoeste 0 -- -- 54
2019-07-31 13:00:00 26 6 Sudoeste 24 Sudoeste 0 -- -- 51
2019-07-31 12:00:00 26.1 3 Sudoeste 18 Sudoeste 0 -- -- 50
2019-07-31 11:00:00 25.8 4 Norte 13 Nordeste 0 -- -- 49
2019-07-31 10:00:00 23.4 9 Nordeste 17 Nordeste 0 -- -- 53
2019-07-31 09:00:00 21.2 8 Noroeste 16 Noroeste 0 -- -- 56
2019-07-31 08:00:00 20.9 5 Noroeste 9 Noroeste 0 -- -- 59
2019-07-31 07:00:00 17.8 5 Nordeste 6 Nordeste 0 -- -- 74
2019-07-31 06:00:00 18.3 4 Nordeste 5 Nordeste 0 -- -- 73
2019-07-31 05:00:00 18.8 4 Nordeste 6 Nordeste 0 -- -- 71
2019-07-31 04:00:00 19.4 4 Nordeste 7 Nordeste 0 -- -- 69
2019-07-31 03:00:00 20.6 3 Nordeste 7 Norte 0 -- -- 64
2019-07-31 02:00:00 22.2 3 Noroeste 10 Oeste 0 -- -- 54
2019-07-31 01:00:00 22.7 4 Oeste 9 Noroeste 0 -- -- 54
2019-07-31 00:00:00 22.9 2 Norte 10 Nordeste 0 -- -- 65
2019-07-30 23:00:00 22.7 2 Noroeste 6 Noroeste 0 -- -- 76
2019-07-30 22:00:00 22.6 0 Calma 4 Sudoeste 0 -- -- 73
2019-07-30 21:00:00 23.5 2 Sudoeste 14 Sudoeste 0 -- -- 68
2019-07-30 20:00:00 24.9 6 Sudoeste 14 Sudoeste 0 -- -- 64
2019-07-30 19:00:00 25 3 Sudoeste 24 Sudoeste 0 -- -- 66
2019-07-30 18:00:00 25.2 13 Sudoeste 25 Sudoeste 0 -- -- 64
2019-07-30 17:00:00 25.8 14 Sudoeste 28 Sudoeste 0 -- -- 66
2019-07-30 16:00:00 26.3 11 Sudoeste 26 Sudoeste 0 -- -- 67
2019-07-30 15:00:00 26.7 13 Sudoeste 22 Sudoeste 0 -- -- 69
2019-07-30 14:00:00 26.7 11 Sudoeste 24 Sudoeste 0 -- -- 66
2019-07-30 13:00:00 25.9 9 Sudoeste 22 Sudoeste 0 -- -- 74
2019-07-30 12:00:00 25.2 9 Sudoeste 24 Sudoeste 0 -- -- 74
2019-07-30 11:00:00 26.1 0 Calma 11 Nordeste 0 -- -- 70
2019-07-30 10:00:00 24.6 8 Nordeste 13 Nordeste 0 -- -- 74
2019-07-30 09:00:00 22.6 0 Calma 3 Noroeste 0 -- -- 90
2019-07-30 08:00:00 21.1 0 Calma 4 Norte 0 -- -- 90
2019-07-30 07:00:00 20.4 0 Calma 6 Nordeste 0 -- -- 90
2019-07-30 06:00:00 21 3 Nordeste 6 Nordeste 0 -- -- 90
2019-07-30 05:00:00 20.7 3 Nordeste 5 Este 0 -- -- 91
2019-07-30 04:00:00 20.2 0 Calma 4 Nordeste 0 -- -- 91
2019-07-30 03:00:00 20.3 0 Calma 3 Nordeste 0 -- -- 90
2019-07-30 02:00:00 20.7 0 Calma 6 Nordeste 0 -- -- 90
2019-07-30 01:00:00 20.9 0 Calma 4 Nordeste 0 -- -- 90
2019-07-30 00:00:00 21.3 0 Calma 5 Nordeste 0 -- -- 90
2019-07-29 23:00:00 22.1 0 Calma 4 Nordeste 0 -- -- 89
2019-07-29 22:00:00 23.7 3 Nordeste 15 Sur 0 -- -- 87
2019-07-29 21:00:00 24.7 9 Sudoeste 23 Sur 0 -- -- 85
2019-07-29 20:00:00 25.3 16 Sudoeste 31 Sudoeste 0 -- -- 81
2019-07-29 19:00:00 25.8 15 Sudoeste 36 Sudoeste 0 -- -- 79
2019-07-29 18:00:00 25.5 19 Sudoeste 36 Sudoeste 0 -- -- 79
2019-07-29 17:00:00 26.8 18 Sudoeste 33 Sudoeste 0 -- -- 70
2019-07-29 16:00:00 26.7 19 Sudoeste 38 Sudoeste 0 -- -- 69
2019-07-29 15:00:00 26.2 13 Sudoeste 28 Sudoeste 0 -- -- 68
2019-07-29 14:00:00 26.2 13 Sudoeste 29 Sudoeste 0 -- -- 66
2019-07-29 13:00:00 24.7 12 Sudoeste 28 Sudoeste 0 -- -- 65
2019-07-29 12:00:00 26.3 3 Oeste 19 Sudoeste 0 -- -- 61
2019-07-29 11:00:00 25.6 4 Sudoeste 16 Sudoeste 0 -- -- 58
2019-07-29 10:00:00 23.8 6 Este 13 Este 0 -- -- 55
2019-07-29 09:00:00 20.3 3 Noroeste 8 Noroeste 0 -- -- 73
2019-07-29 08:00:00 17.7 3 Noroeste 8 Nordeste 0 -- -- 88
2019-07-29 07:00:00 16.2 0 Calma 7 Noroeste 0 -- -- 90
2019-07-29 06:00:00 16.3 0 Calma 6 Noroeste 0 -- -- 90
2019-07-29 05:00:00 16.2 0 Calma 4 Este 0 -- -- 90
2019-07-29 04:00:00 16.5 3 Este 4 Nordeste 0 -- -- 89
2019-07-29 03:00:00 16.8 2 Nordeste 5 Nordeste 0 -- -- 89
2019-07-29 02:00:00 17 0 Calma 5 Nordeste 0 -- -- 88
2019-07-29 01:00:00 17 0 Calma 5 Noroeste 0 -- -- 88
2019-07-29 00:00:00 17.4 0 Calma 5 Este 0 -- -- 86
2019-07-28 23:00:00 18.7 3 Nordeste 7 Noroeste 0 -- -- 83
2019-07-28 22:00:00 19.1 0 Calma 3 Oeste 0 -- -- 80
2019-07-28 21:00:00 20.8 2 Sudoeste 13 Sudoeste 0 -- -- 68
2019-07-28 20:00:00 23.8 4 Sudoeste 16 Sudoeste 0 -- -- 55
2019-07-28 19:00:00 24.4 10 Sudoeste 24 Sudoeste 0 -- -- 55
2019-07-28 18:00:00 24.2 12 Sudoeste 25 Sudoeste 0 -- -- 53
2019-07-28 17:00:00 24.7 12 Sudoeste 28 Sudoeste 0 -- -- 54
2019-07-28 16:00:00 25.1 10 Sudoeste 27 Sudoeste 0 -- -- 56
2019-07-28 15:00:00 25.4 11 Sudoeste 26 Sudoeste 0 -- -- 59
2019-07-28 14:00:00 24.6 11 Sudoeste 27 Sudoeste 0 -- -- 61
2019-07-28 13:00:00 24.5 6 Sudoeste 22 Sudoeste 0.1 -- -- 60
2019-07-28 12:00:00 23.4 11 Sudoeste 22 Oeste 0 -- -- 65
2019-07-28 11:00:00 23.3 0 Calma 18 Nordeste 0 -- -- 65
2019-07-28 10:00:00 20.9 7 Este 19 Este 0 -- -- 80
2019-07-28 09:00:00 17.6 0 Calma 6 Este 0 -- -- 91
2019-07-28 08:00:00 16.2 3 Este 7 Este 0 -- -- 91
2019-07-28 07:00:00 15.5 4 Este 6 Nordeste 0 -- -- 91
2019-07-28 06:00:00 15.6 3 Nordeste 8 Nordeste 0 -- -- 91
2019-07-28 05:00:00 15.9 3 Nordeste 6 Noroeste 0 -- -- 91
2019-07-28 04:00:00 16.5 4 Noroeste 11 Norte 0 -- -- 91
2019-07-28 03:00:00 16.6 4 Nordeste 7 Este 0 -- -- 91
2019-07-28 02:00:00 16.4 0 Calma 5 Nordeste 0 -- -- 91
2019-07-28 01:00:00 16.7 0 Calma 4 Noroeste 0 -- -- 91
2019-07-28 00:00:00 17.1 0 Calma 10 Nordeste 0 -- -- 91
2019-07-27 23:00:00 17.5 0 Calma 8 Sudeste 0.3 -- -- 90
2019-07-26 12:00:00 28.5 9 Sudoeste 21 Sudoeste 0 -- -- 61
2019-07-26 11:00:00 28.1 12 Sudoeste 18 Sudoeste 0 -- -- 54
2019-07-26 10:00:00 27.3 0 Calma 6 Noroeste 0 -- -- 51
2019-07-26 09:00:00 23 0 Calma 8 Noroeste 0 -- -- 75
2019-07-26 08:00:00 20 2 Norte 5 Noroeste 0 -- -- 88
2019-07-26 07:00:00 18.1 2 Nordeste 3 Nordeste 0 -- -- 91
2019-07-26 06:00:00 18.5 0 Calma 5 Noroeste 0 -- -- 90
2019-07-26 05:00:00 19.6 0 Calma 5 Nordeste 0 -- -- 90
2019-07-26 04:00:00 21.2 0 Calma 5 Norte 0 -- -- 90
2019-07-26 03:00:00 22.4 0 Calma 11 Oeste 0 -- -- 90
2019-07-26 02:00:00 22.8 2 Oeste 12 Sudeste 0 -- -- 91
2019-07-26 01:00:00 23.9 0 Calma 8 Sur 0 -- -- 90
2019-07-26 00:00:00 23.5 2 Oeste 11 Sudoeste 0 -- -- 90
2019-07-25 23:00:00 25.4 3 Sudoeste 12 Sudoeste 0 -- -- 88
2019-07-25 22:00:00 25.8 8 Sudoeste 17 Sudoeste 0 -- -- 88
2019-07-25 21:00:00 26.1 9 Sudoeste 20 Sudoeste 0 -- -- 86
2019-07-25 20:00:00 26.8 8 Sudoeste 19 Sudoeste 0 -- -- 83
2019-07-25 19:00:00 26.8 12 Sudoeste 28 Sudoeste 0 -- -- 81
2019-07-25 18:00:00 27.9 12 Sudoeste 28 Sudoeste 0 -- -- 76
2019-07-25 17:00:00 27.3 15 Sudoeste 30 Sudoeste 0 -- -- 76
2019-07-25 16:00:00 27.8 11 Sudoeste 24 Sudoeste 0 -- -- 75
2019-07-25 15:00:00 28 15 Sudoeste 28 Sudoeste 0 -- -- 73
2019-07-25 14:00:00 28.9 14 Sudoeste 26 Sudoeste 0 -- -- 71
2019-07-25 13:00:00 28.8 12 Sudoeste 21 Sudoeste 0 -- -- 70
2019-07-25 12:00:00 27.2 10 Sudoeste 20 Sudoeste 0 -- -- 73
2019-07-25 11:00:00 27.7 5 Sudoeste 17 Sudoeste 0 -- -- 70
2019-07-25 10:00:00 26.7 5 Sudoeste 12 Sudoeste 0 -- -- 79
2019-07-25 09:00:00 25 4 Sudoeste 10 Sudoeste 0 -- -- 88
2019-07-25 08:00:00 21.7 0 Calma 5 Sudoeste 0 -- -- 90
2019-07-25 07:00:00 19.8 0 Calma 4 Nordeste 0 -- -- 90
2019-07-25 06:00:00 19.1 0 Calma 3 Nordeste 0 -- -- 90
2019-07-25 05:00:00 18.5 0 Calma 5 Noroeste 0 -- -- 90
2019-07-25 04:00:00 18.8 0 Calma 4 Oeste 0 -- -- 90
2019-07-25 03:00:00 19.1 0 Calma 4 Noroeste 0 -- -- 90
2019-07-25 02:00:00 20.3 0 Calma 3 Noroeste 0 -- -- 90
2019-07-25 01:00:00 21.5 0 Calma 6 Oeste 0 -- -- 89
2019-07-25 00:00:00 22 0 Calma 3 Oeste 0 -- -- 89
2019-07-24 23:00:00 22.9 0 Calma 4 Sur 0 -- -- 88
2019-07-24 22:00:00 24.4 3 Sudoeste 12 Sudoeste 0 -- -- 84
2019-07-24 21:00:00 26 5 Sudoeste 13 Sudoeste 0 -- -- 73
2019-07-24 20:00:00 27.1 8 Sudoeste 18 Sudoeste 0 -- -- 65
2019-07-24 19:00:00 27.9 7 Sudoeste 21 Sudoeste 0 -- -- 65
2019-07-24 18:00:00 27.9 11 Sudoeste 22 Sudoeste 0 -- -- 63
2019-07-24 17:00:00 28.3 10 Sudoeste 22 Sudoeste 0 -- -- 69
2019-07-24 16:00:00 28.4 11 Sudoeste 25 Sudoeste 0 -- -- 60
2019-07-24 15:00:00 28.2 11 Sudoeste 25 Sudoeste 0 -- -- 71
2019-07-24 14:00:00 27 14 Sudoeste 24 Sudoeste 0 -- -- 75
2019-07-24 13:00:00 27.7 13 Sudoeste 23 Sudoeste 0 -- -- 73
2019-07-24 12:00:00 27.9 12 Sudoeste 22 Sudoeste 0 -- -- 71
2019-07-24 11:00:00 26.8 12 Sudoeste 20 Sudoeste 0 -- -- 75
2019-07-24 10:00:00 27.4 8 Este 17 Este 0 -- -- 65
2019-07-24 09:00:00 23.7 2 Noroeste 6 Noroeste 0 -- -- 85
2019-07-24 08:00:00 22.3 2 Este 6 Nordeste 0 -- -- 90
2019-07-24 07:00:00 21.5 4 Nordeste 11 Oeste 0 -- -- 90
2019-07-24 06:00:00 21 0 Calma 4 Nordeste 0 -- -- 90
2019-07-24 05:00:00 20.7 0 Calma 4 Oeste 0 -- -- 91
2019-07-24 04:00:00 21.3 0 Calma 8 Este 0 -- -- 90
2019-07-24 03:00:00 22.1 4 Este 8 Este 0 -- -- 89
2019-07-24 02:00:00 23.1 2 Sudoeste 15 Sur 0 -- -- 86
2019-07-24 01:00:00 23 4 Este 9 Este 0 -- -- 88
2019-07-24 00:00:00 24.2 4 Este 18 Oeste 0 -- -- 85
2019-07-23 23:00:00 24.5 4 Sudoeste 18 Sudoeste 0 -- -- 89
2019-07-23 22:00:00 25.4 10 Sudoeste 19 Sudoeste 0 -- -- 88
2019-07-23 21:00:00 25.9 11 Sudoeste 17 Sudoeste 0 -- -- 83
2019-07-23 20:00:00 27 11 Sudoeste 23 Sudoeste 0 -- -- 75
2019-07-23 19:00:00 27.6 12 Sudoeste 27 Sudoeste 0 -- -- 70
2019-07-23 18:00:00 27.7 18 Sudoeste 30 Sudoeste 0 -- -- 71
2019-07-23 17:00:00 28.9 17 Sudoeste 30 Sudoeste 0 -- -- 55
2019-07-23 16:00:00 29.7 14 Sudoeste 29 Sudoeste 0 -- -- 53
2019-07-23 15:00:00 29.8 14 Sudoeste 30 Sudoeste 0 -- -- 59
2019-07-23 14:00:00 29 15 Sudoeste 26 Sudoeste 0 -- -- 61
2019-07-23 13:00:00 28.4 12 Sudoeste 22 Sudoeste 0 -- -- 68
2019-07-23 12:00:00 28.2 10 Sudoeste 20 Sudoeste 0 -- -- 69
2019-07-23 11:00:00 27 6 Sudoeste 17 Sudoeste 0 -- -- 75
2019-07-23 10:00:00 26.1 6 Sudoeste 12 Sudoeste 0 -- -- 83
2019-07-23 09:00:00 23.9 2 Nordeste 6 Nordeste 0 -- -- 90
2019-07-23 08:00:00 20.3 0 Calma 5 Noroeste 0 -- -- 91
2019-07-23 07:00:00 18.9 0 Calma 3 Este 0 -- -- 91
2019-07-23 06:00:00 19.1 0 Calma 3 Noroeste 0 -- -- 91
2019-07-23 05:00:00 19.4 0 Calma 4 Nordeste 0 -- -- 90
2019-07-23 04:00:00 19.5 0 Calma 2 Oeste 0 -- -- 90
2019-07-23 03:00:00 20 0 Calma 7 Noroeste 0 -- -- 90
2019-07-23 02:00:00 20.3 0 Calma 5 Nordeste 0 -- -- 90
2019-07-23 01:00:00 20 0 Calma 5 Noroeste 0 -- -- 88
2019-07-23 00:00:00 20.3 0 Calma 5 Noroeste 0 -- -- 85
2019-07-22 23:00:00 21.5 0 Calma 4 Nordeste 0 -- -- 85
2019-07-22 22:00:00 23.5 0 Calma 8 Sur 0 -- -- 84
2019-07-22 21:00:00 25.9 5 Sudoeste 22 Sudoeste 0 -- -- 78
2019-07-22 20:00:00 27.1 15 Sudoeste 22 Sudoeste 0 -- -- 69
2019-07-22 19:00:00 27.7 14 Sudoeste 24 Sudoeste 0 -- -- 66
2019-07-22 18:00:00 28.8 13 Sudoeste 23 Sudoeste 0 -- -- 61
2019-07-22 17:00:00 29 11 Sudoeste 26 Sudoeste 0 -- -- 64
2019-07-22 16:00:00 28.9 10 Sudoeste 22 Oeste 0 -- -- 63
2019-07-22 15:00:00 29.5 10 Sudoeste 23 Sudoeste 0 -- -- 50
2019-07-22 14:00:00 30.2 8 Sudoeste 19 Sudoeste 0 -- -- 48
2019-07-22 13:00:00 28.8 8 Sudoeste 17 Sudoeste 0 -- -- 59
2019-07-22 12:00:00 27.8 8 Sudoeste 18 Sudoeste 0 -- -- 65
2019-07-22 11:00:00 27.7 6 Sudoeste 14 Sudoeste 0 -- -- 68
2019-07-22 10:00:00 26.8 3 Sudoeste 8 Oeste 0 -- -- 73
2019-07-22 09:00:00 22.3 0 Calma 2 Este 0 -- -- 90
2019-07-22 08:00:00 19.8 0 Calma 3 Este 0 -- -- 91
2019-07-22 07:00:00 18.7 0 Calma 3 Este 0 -- -- 91
2019-07-22 06:00:00 18.6 0 Calma 3 Este 0 -- -- 91
2019-07-22 05:00:00 18.7 0 Calma 3 Este 0 -- -- 90
2019-07-22 04:00:00 18.8 0 Calma 5 Noroeste 0 -- -- 90
2019-07-22 03:00:00 19.2 0 Calma 5 Noroeste 0 -- -- 90
2019-07-22 02:00:00 19.8 0 Calma 7 Oeste 0 -- -- 90
2019-07-22 01:00:00 20.8 0 Calma 4 Nordeste 0 -- -- 89
2019-07-22 00:00:00 21.1 0 Calma 5 Oeste 0 -- -- 89
2019-07-21 23:00:00 22.4 2 Oeste 5 Sudoeste 0 -- -- 88
2019-07-21 22:00:00 23.2 0 Calma 5 Sur 0 -- -- 87
2019-07-21 21:00:00 24.6 4 Sudoeste 15 Sudoeste 0 -- -- 84
2019-07-21 20:00:00 25.8 6 Sudoeste 18 Sudoeste 0 -- -- 74
2019-07-21 19:00:00 26.7 9 Sudoeste 21 Sudoeste 0 -- -- 65
2019-07-21 18:00:00 27.5 10 Sudoeste 20 Sudoeste 0 -- -- 58
2019-07-21 17:00:00 27.8 8 Sudoeste 20 Sudoeste 0 -- -- 55
2019-07-21 16:00:00 27.4 13 Sudoeste 23 Sudoeste 0 -- -- 59
2019-07-21 15:00:00 27.3 11 Sudoeste 24 Sudoeste 0 -- -- 59
2019-07-21 14:00:00 26.9 9 Sudoeste 22 Sudoeste 0 -- -- 70
2019-07-21 13:00:00 27.1 12 Sudoeste 25 Sudoeste 0 -- -- 70
2019-07-21 12:00:00 26.2 13 Sudoeste 22 Sudoeste 0 -- -- 73
2019-07-21 11:00:00 27.1 4 Este 13 Sudoeste 0 -- -- 70
2019-07-21 10:00:00 26.2 6 Este 12 Este 0 -- -- 71
2019-07-21 09:00:00 23.6 0 Calma 11 Norte 0 -- -- 80
2019-07-21 08:00:00 22.1 4 Norte 9 Norte 0 -- -- 86
2019-07-21 07:00:00 21.4 6 Nordeste 13 Nordeste 0 -- -- 90
2019-07-21 06:00:00 20.2 2 Nordeste 5 Nordeste 0 -- -- 90
2019-07-21 05:00:00 20.3 0 Calma 4 Nordeste 0 -- -- 90
2019-07-21 04:00:00 20.1 0 Calma 4 Este 0 -- -- 90
2019-07-21 03:00:00 20.3 3 Este 5 Este 0 -- -- 90
2019-07-21 02:00:00 20.4 0 Calma 4 Norte 0 -- -- 90
2019-07-21 01:00:00 20.9 0 Calma 5 Oeste 0 -- -- 90
2019-07-21 00:00:00 21.4 0 Calma 4 Oeste 0 -- -- 90
2019-07-20 23:00:00 22.3 0 Calma 3 Sudoeste 0 -- -- 90
2019-07-20 22:00:00 23.4 0 Calma 13 Sudoeste 0 -- -- 89
2019-07-20 21:00:00 24.5 7 Sudoeste 18 Sudoeste 0 -- -- 85
2019-07-20 20:00:00 25.3 6 Sudoeste 22 Sudoeste 0 -- -- 84
2019-07-20 19:00:00 25.7 13 Sudoeste 27 Sudoeste 0 -- -- 80
2019-07-20 18:00:00 26.2 16 Sudoeste 32 Sudoeste 0 -- -- 79
2019-07-20 17:00:00 27.3 14 Sudoeste 30 Sudoeste 0 -- -- 71
2019-07-20 16:00:00 27.3 12 Sudoeste 26 Oeste 0 -- -- 73
2019-07-20 15:00:00 27.9 13 Sudoeste 29 Oeste 0 -- -- 75
2019-07-20 14:00:00 26.6 15 Sudoeste 28 Sudoeste 0 -- -- 78
2019-07-20 13:00:00 27 10 Sudoeste 22 Oeste 0 -- -- 73
2019-07-20 12:00:00 27.3 11 Sudoeste 23 Sudoeste 0 -- -- 68
2019-07-20 11:00:00 26.6 7 Sudoeste 23 Sudoeste 0 -- -- 65
2019-07-20 10:00:00 25.8 12 Sudoeste 21 Sudoeste 0 -- -- 66
2019-07-20 09:00:00 24.6 2 Sur 11 Sudoeste 0 -- -- 73
2019-07-20 08:00:00 20.9 0 Calma 8 Sudoeste 0 -- -- 90
2019-07-20 07:00:00 20.2 0 Calma 8 Sudoeste 0 -- -- 91
2019-07-20 06:00:00 20.2 3 Oeste 11 Sudoeste 0 -- -- 91
2019-07-20 05:00:00 20.1 3 Sudoeste 9 Noroeste 0 -- -- 91
2019-07-20 04:00:00 20.1 0 Calma 9 Sudoeste 0 -- -- 91
2019-07-20 03:00:00 20.5 2 Sudoeste 10 Oeste 0 -- -- 90
2019-07-20 02:00:00 20.9 3 Sudoeste 10 Sudoeste 0 -- -- 90
2019-07-20 01:00:00 21.9 2 Este 6 Este 0 -- -- 90
2019-07-20 00:00:00 22.1 2 Sudoeste 15 Sudoeste 0 -- -- 89
2019-07-19 23:00:00 23.5 7 Sudoeste 15 Sudoeste 0 -- -- 86
2019-07-19 22:00:00 23.9 8 Sudoeste 17 Sudoeste 0 -- -- 84
2019-07-19 21:00:00 24.5 9 Sudoeste 23 Sudoeste 0 -- -- 83
2019-07-19 20:00:00 25.2 12 Sudoeste 29 Sudoeste 0 -- -- 79
2019-07-19 19:00:00 25.6 15 Sudoeste 32 Sudoeste 0 -- -- 75
2019-07-19 18:00:00 25.8 10 Sudoeste 33 Sudoeste 0 -- -- 74
2019-07-19 17:00:00 25.6 12 Sudoeste 27 Sudoeste 0 -- -- 79
2019-07-19 16:00:00 26.7 11 Sudoeste 34 Sudoeste 0 -- -- 70
2019-07-19 15:00:00 25 13 Sudoeste 28 Sudoeste 0 -- -- 80
2019-07-19 14:00:00 25.3 11 Sudoeste 28 Sudoeste 0 -- -- 79
2019-07-19 13:00:00 25.9 12 Sudoeste 25 Sudoeste 0 -- -- 78
2019-07-19 12:00:00 26.3 0 Calma 18 Sudoeste 0 -- -- 69
2019-07-19 11:00:00 25.7 8 Sudoeste 18 Sudoeste 0 -- -- 75
2019-07-19 10:00:00 23.7 0 Calma 8 Noroeste 0 -- -- 79
2019-07-19 09:00:00 22.6 3 Noroeste 9 Noroeste 0 -- -- 84
2019-07-19 08:00:00 19.8 2 Este 4 Nordeste 0 -- -- 91
2019-07-19 07:00:00 18.8 0 Calma 6 Norte 0 -- -- 91
2019-07-19 06:00:00 18.6 0 Calma 3 Nordeste 0 -- -- 91
2019-07-19 05:00:00 18.9 0 Calma 3 Nordeste 0 -- -- 90
2019-07-19 04:00:00 18.9 0 Calma 3 Este 0 -- -- 90
2019-07-19 03:00:00 19.2 0 Calma 3 Noroeste 0 -- -- 90
2019-07-19 02:00:00 19.2 0 Calma 4 Este 0 -- -- 90
2019-07-19 01:00:00 19.3 0 Calma 4 Oeste 0 -- -- 90
2019-07-19 00:00:00 19.7 0 Calma 3 Este 0 -- -- 89